Time;durP1;ratioP1;P1;durP2;ratioP2;P2;SDS_P1;SDS_P2;PMS_P1;PMS_P2;Temp;Humidity;BMP_temperature;BMP_pressure;BME280_temperature;BME280_humidity;BME280_pressure;Samples;Min_cycle;Max_cycle;Signal;HPM_P1;HPM_P2
2021/06/26 07:26:20;;;;;;;30.45;9.30;;;;;;;;;;5107599;27;20440;-83
2021/06/26 10:25:03;;;;;;;3.42;2.50;;;;;;;;;;5086763;22;20066;-88
2021/06/26 10:27:29;;;;;;;3.28;2.97;;;;;;;;;;5012808;28;20025;-87
2021/06/26 10:29:54;;;;;;;5.53;2.97;;;;;;;;;;5009084;28;20045;-88
2021/06/26 10:32:20;;;;;;;3.50;3.20;;;;;;;;;;5004636;28;20037;-88
2021/06/26 10:34:47;;;;;;;4.60;3.33;;;;;;;;;;5008921;28;20152;-88
2021/06/26 10:40:22;;;;;;;3.78;2.90;;;;;;;;;;5009840;22;20062;-88
2021/06/26 10:42:47;;;;;;;3.63;3.00;;;;;;;;;;4984470;28;20509;-88
2021/06/26 10:45:27;;;;;;;4.40;3.20;;;;;;;;;;4970999;28;20078;-89
2021/06/26 10:47:52;;;;;;;4.35;3.03;;;;;;;;;;4993530;28;20050;-88
2021/06/26 10:50:20;;;;;;;4.70;3.10;;;;;;;;;;4976223;28;20134;-88
2021/06/26 10:52:53;;;;;;;4.35;3.13;;;;;;;;;;4967342;28;20065;-89
2021/06/26 10:55:31;;;;;;;3.25;2.85;;;;;;;;;;4984267;28;20500;-90
2021/06/26 10:57:58;;;;;;;5.38;2.90;;;;;;;;;;4996941;28;20085;-90
2021/06/26 11:00:37;;;;;;;5.10;3.10;;;;;;;;;;4983029;28;20023;-90
2021/06/26 11:03:04;;;;;;;3.63;3.28;;;;;;;;;;4972765;28;20384;-90
2021/06/26 11:05:34;;;;;;;4.03;3.00;;;;;;;;;;4987320;28;20053;-90
2021/06/26 11:08:13;;;;;;;3.67;2.97;;;;;;;;;;4981043;28;20035;-91
2021/06/26 11:10:54;;;;;;;4.75;2.88;;;;;;;;;;4988261;28;20026;-90
2021/06/26 11:13:22;;;;;;;3.63;2.75;;;;;;;;;;4988058;28;20043;-91
2021/06/26 11:15:50;;;;;;;3.55;3.00;;;;;;;;;;4967410;28;20042;-90
2021/06/26 11:18:22;;;;;;;3.38;3.00;;;;;;;;;;4969282;28;20035;-91
2021/06/26 11:20:47;;;;;;;9.00;3.63;;;;;;;;;;4986649;28;20031;-91
2021/06/26 11:23:17;;;;;;;3.90;2.78;;;;;;;;;;4969484;28;20057;-90
2021/06/26 11:25:44;;;;;;;4.65;2.65;;;;;;;;;;4989382;28;20049;-90
2021/06/26 11:28:13;;;;;;;4.88;2.80;;;;;;;;;;4988346;28;20415;-91
2021/06/26 11:30:46;;;;;;;3.80;2.92;;;;;;;;;;4987824;28;20077;-90
2021/06/26 11:33:12;;;;;;;5.53;2.67;;;;;;;;;;4975550;28;20034;-90
2021/06/26 11:35:47;;;;;;;8.77;3.30;;;;;;;;;;4978385;28;20510;-90
2021/06/26 11:38:19;;;;;;;4.13;3.20;;;;;;;;;;4962530;28;20038;-91
2021/06/26 11:40:45;;;;;;;4.47;2.83;;;;;;;;;;4972021;28;20395;-90
2021/06/26 11:43:32;;;;;;;5.40;3.00;;;;;;;;;;4973134;28;20035;-92
2021/06/26 11:46:09;;;;;;;6.15;2.90;;;;;;;;;;4992783;28;20034;-91
2021/06/26 11:48:43;;;;;;;5.40;2.95;;;;;;;;;;4973727;28;20049;-92
2021/06/26 11:51:18;;;;;;;6.03;3.65;;;;;;;;;;4986975;28;20034;-91
2021/06/26 11:54:07;;;;;;;3.90;3.05;;;;;;;;;;4974295;28;20085;-91
2021/06/26 11:57:08;;;;;;;5.88;3.15;;;;;;;;;;4988961;28;20503;-92
2021/06/26 11:59:46;;;;;;;;;;;;;;;;;;4969532;28;20081;-91
2021/06/26 12:02:30;;;;;;;4.20;2.60;;;;;;;;;;4986808;28;19918;-92
2021/06/26 12:05:04;;;;;;;4.18;3.00;;;;;;;;;;4992637;28;20497;-91
2021/06/26 12:07:48;;;;;;;3.75;3.30;;;;;;;;;;4994506;28;20041;-91
2021/06/26 12:10:19;;;;;;;3.50;3.17;;;;;;;;;;4979638;28;20116;-91
2021/06/26 12:13:03;;;;;;;2.90;2.70;;;;;;;;;;4974492;28;20072;-92
2021/06/26 12:15:28;;;;;;;3.17;2.88;;;;;;;;;;4976964;28;20022;-91
2021/06/26 12:18:10;;;;;;;3.00;2.72;;;;;;;;;;4974158;28;20033;-91
2021/06/26 12:20:38;;;;;;;3.10;2.72;;;;;;;;;;4983222;28;20038;-91
2021/06/26 12:23:11;;;;;;;5.10;2.90;;;;;;;;;;4974726;28;20098;-92
2021/06/26 12:25:41;;;;;;;4.35;2.67;;;;;;;;;;4974893;28;20038;-90
2021/06/26 12:28:10;;;;;;;3.78;3.00;;;;;;;;;;4970446;28;20035;-91
2021/06/26 12:30:40;;;;;;;3.55;2.80;;;;;;;;;;4976756;28;20046;-90
2021/06/26 12:33:10;;;;;;;4.63;2.70;;;;;;;;;;4986463;28;20402;-90
2021/06/26 12:35:37;;;;;;;4.30;2.97;;;;;;;;;;4977379;28;20049;-89
2021/06/26 12:38:04;;;;;;;5.03;2.75;;;;;;;;;;4975007;28;20034;-88
2021/06/26 12:40:34;;;;;;;3.63;3.10;;;;;;;;;;4988865;28;20054;-89
2021/06/26 12:43:14;;;;;;;3.20;2.90;;;;;;;;;;4987164;28;20033;-92
2021/06/26 12:45:43;;;;;;;6.47;3.33;;;;;;;;;;4979229;28;20097;-94
2021/06/26 12:48:33;;;;;;;4.22;2.83;;;;;;;;;;4971757;28;20023;-92
2021/06/26 12:57:16;;;;;;;3.53;2.83;;;;;;;;;;4971721;28;20042;-93
2021/06/26 13:03:11;;;;;;;2.80;2.50;;;;;;;;;;4979881;28;20049;-93
2021/06/26 13:05:35;;;;;;;4.05;2.70;;;;;;;;;;4966376;28;20073;-93
2021/06/26 13:08:04;;;;;;;4.70;2.65;;;;;;;;;;4982993;28;20038;-91
2021/06/26 13:13:54;;;;;;;5.40;2.67;;;;;;;;;;4975438;28;20038;-91
2021/06/26 13:16:20;;;;;;;4.40;3.13;;;;;;;;;;4997345;28;20038;-93
2021/06/26 13:18:46;;;;;;;4.95;3.10;;;;;;;;;;4982273;28;20036;-92
2021/06/26 13:21:43;;;;;;;2.83;2.42;;;;;;;;;;4991925;28;20023;-94
2021/06/26 13:24:09;;;;;;;3.40;2.80;;;;;;;;;;5004345;28;20026;-92
2021/06/26 13:26:37;;;;;;;4.70;2.65;;;;;;;;;;4985703;28;20032;-91
2021/06/26 13:29:06;;;;;;;3.15;2.70;;;;;;;;;;4971423;28;20030;-92
2021/06/26 13:31:32;;;;;;;2.63;2.30;;;;;;;;;;4980451;28;20038;-92
2021/06/26 13:34:00;;;;;;;3.72;2.50;;;;;;;;;;4996091;28;20050;-92
2021/06/26 13:36:26;;;;;;;3.03;2.72;;;;;;;;;;4983560;28;20034;-92
2021/06/26 13:38:52;;;;;;;6.15;2.80;;;;;;;;;;4973856;28;20051;-92
2021/06/26 13:41:21;;;;;;;4.63;2.60;;;;;;;;;;4978856;28;20026;-93
2021/06/26 13:43:47;;;;;;;4.63;3.00;;;;;;;;;;4986301;28;20087;-93
2021/06/26 13:46:13;;;;;;;3.58;2.65;;;;;;;;;;4971378;28;20038;-94
2021/06/26 13:48:38;;;;;;;2.75;2.50;;;;;;;;;;4966839;28;20054;-93
2021/06/26 13:51:04;;;;;;;6.22;2.88;;;;;;;;;;4991181;28;20034;-92
2021/06/26 13:53:30;;;;;;;3.85;2.50;;;;;;;;;;4979192;28;20030;-92
2021/06/26 13:55:56;;;;;;;5.65;2.90;;;;;;;;;;4979127;28;20041;-93
2021/06/26 13:58:22;;;;;;;3.92;2.67;;;;;;;;;;4978302;28;20034;-92
2021/06/26 14:00:48;;;;;;;3.80;2.67;;;;;;;;;;4999918;28;20030;-91
